sensor_id;sensor_type;location;lat;lon;timestamp;temperature;humidity
3037;DHT22;1528;52.550;13.408;2023-03-12T00:02:30;2.60;31.70
3037;DHT22;1528;52.550;13.408;2023-03-12T00:05:15;2.40;32.30
3037;DHT22;1528;52.550;13.408;2023-03-12T00:08:02;2.40;32.20
3037;DHT22;1528;52.550;13.408;2023-03-12T00:10:48;2.50;32.00
3037;DHT22;1528;52.550;13.408;2023-03-12T00:13:33;2.60;32.40
3037;DHT22;1528;52.550;13.408;2023-03-12T00:16:20;2.50;31.90
3037;DHT22;1528;52.550;13.408;2023-03-12T00:19:05;2.50;31.90
3037;DHT22;1528;52.550;13.408;2023-03-12T00:21:51;2.50;31.90
3037;DHT22;1528;52.550;13.408;2023-03-12T00:24:38;2.60;31.50
3037;DHT22;1528;52.550;13.408;2023-03-12T00:27:24;2.50;31.60
3037;DHT22;1528;52.550;13.408;2023-03-12T00:30:11;2.60;32.30
3037;DHT22;1528;52.550;13.408;2023-03-12T00:32:56;2.60;31.80
3037;DHT22;1528;52.550;13.408;2023-03-12T00:35:42;2.60;31.60
3037;DHT22;1528;52.550;13.408;2023-03-12T00:38:28;2.60;31.30
3037;DHT22;1528;52.550;13.408;2023-03-12T00:41:15;2.70;31.10
3037;DHT22;1528;52.550;13.408;2023-03-12T00:44:02;2.60;31.10
3037;DHT22;1528;52.550;13.408;2023-03-12T00:46:48;2.50;31.20
3037;DHT22;1528;52.550;13.408;2023-03-12T00:49:33;2.60;31.00
3037;DHT22;1528;52.550;13.408;2023-03-12T00:52:19;2.70;30.50
3037;DHT22;1528;52.550;13.408;2023-03-12T00:55:05;2.70;31.30
3037;DHT22;1528;52.550;13.408;2023-03-12T00:57:52;2.80;30.30
3037;DHT22;1528;52.550;13.408;2023-03-12T01:00:37;2.90;30.40
3037;DHT22;1528;52.550;13.408;2023-03-12T01:03:23;2.90;30.00
3037;DHT22;1528;52.550;13.408;2023-03-12T01:06:08;3.10;29.90
3037;DHT22;1528;52.550;13.408;2023-03-12T01:08:54;3.10;29.70
3037;DHT22;1528;52.550;13.408;2023-03-12T01:11:40;3.10;29.70
3037;DHT22;1528;52.550;13.408;2023-03-12T01:14:27;3.10;29.50
3037;DHT22;1528;52.550;13.408;2023-03-12T01:17:12;3.10;29.50
3037;DHT22;1528;52.550;13.408;2023-03-12T01:19:58;3.10;29.60
3037;DHT22;1528;52.550;13.408;2023-03-12T01:22:44;3.10;30.10
3037;DHT22;1528;52.550;13.408;2023-03-12T01:25:29;3.10;29.80
3037;DHT22;1528;52.550;13.408;2023-03-12T01:28:17;3.00;30.20
3037;DHT22;1528;52.550;13.408;2023-03-12T01:31:07;2.90;30.00
3037;DHT22;1528;52.550;13.408;2023-03-12T01:33:53;3.00;29.80
3037;DHT22;1528;52.550;13.408;2023-03-12T01:36:38;3.10;30.50
3037;DHT22;1528;52.550;13.408;2023-03-12T01:39:24;3.20;29.80
3037;DHT22;1528;52.550;13.408;2023-03-12T01:42:10;3.10;30.00
3037;DHT22;1528;52.550;13.408;2023-03-12T01:44:57;3.30;29.80
3037;DHT22;1528;52.550;13.408;2023-03-12T01:47:44;3.20;29.80
3037;DHT22;1528;52.550;13.408;2023-03-12T01:50:30;3.20;29.90
3037;DHT22;1528;52.550;13.408;2023-03-12T01:53:15;3.20;30.00
3037;DHT22;1528;52.550;13.408;2023-03-12T01:56:02;3.30;30.00
3037;DHT22;1528;52.550;13.408;2023-03-12T01:58:52;3.30;29.70
3037;DHT22;1528;52.550;13.408;2023-03-12T02:01:39;3.20;30.00
3037;DHT22;1528;52.550;13.408;2023-03-12T02:04:28;3.30;30.00
3037;DHT22;1528;52.550;13.408;2023-03-12T02:07:16;3.30;30.00
3037;DHT22;1528;52.550;13.408;2023-03-12T02:10:03;3.20;30.10
3037;DHT22;1528;52.550;13.408;2023-03-12T02:12:48;3.30;30.30
3037;DHT22;1528;52.550;13.408;2023-03-12T02:15:35;3.40;30.10
3037;DHT22;1528;52.550;13.408;2023-03-12T02:18:21;3.40;30.00
3037;DHT22;1528;52.550;13.408;2023-03-12T02:21:13;3.20;30.30
3037;DHT22;1528;52.550;13.408;2023-03-12T02:24:04;3.40;30.20
3037;DHT22;1528;52.550;13.408;2023-03-12T02:26:52;3.40;30.30
3037;DHT22;1528;52.550;13.408;2023-03-12T02:29:40;3.30;30.40
3037;DHT22;1528;52.550;13.408;2023-03-12T02:32:28;3.40;30.30
3037;DHT22;1528;52.550;13.408;2023-03-12T02:35:15;3.20;30.40
3037;DHT22;1528;52.550;13.408;2023-03-12T02:38:02;3.20;30.40
3037;DHT22;1528;52.550;13.408;2023-03-12T02:40:48;2.90;30.80
3037;DHT22;1528;52.550;13.408;2023-03-12T02:43:35;3.20;31.10
3037;DHT22;1528;52.550;13.408;2023-03-12T02:46:21;2.80;31.40
3037;DHT22;1528;52.550;13.408;2023-03-12T02:49:06;2.80;31.30
3037;DHT22;1528;52.550;13.408;2023-03-12T02:51:52;2.90;31.20
3037;DHT22;1528;52.550;13.408;2023-03-12T02:54:38;2.80;31.30
3037;DHT22;1528;52.550;13.408;2023-03-12T02:57:24;2.80;31.50
3037;DHT22;1528;52.550;13.408;2023-03-12T03:00:12;2.60;32.30
3037;DHT22;1528;52.550;13.408;2023-03-12T03:02:59;2.70;32.00
3037;DHT22;1528;52.550;13.408;2023-03-12T03:05:45;2.60;32.30
3037;DHT22;1528;52.550;13.408;2023-03-12T03:08:30;2.70;31.90
3037;DHT22;1528;52.550;13.408;2023-03-12T03:11:16;2.70;31.90
3037;DHT22;1528;52.550;13.408;2023-03-12T03:14:02;2.70;31.60
3037;DHT22;1528;52.550;13.408;2023-03-12T03:16:48;2.60;32.00
3037;DHT22;1528;52.550;13.408;2023-03-12T03:19:34;2.40;32.40
3037;DHT22;1528;52.550;13.408;2023-03-12T03:22:21;2.60;32.30
3037;DHT22;1528;52.550;13.408;2023-03-12T03:25:08;2.50;32.50
3037;DHT22;1528;52.550;13.408;2023-03-12T03:27:54;2.40;32.80
3037;DHT22;1528;52.550;13.408;2023-03-12T03:30:39;2.60;32.40
3037;DHT22;1528;52.550;13.408;2023-03-12T03:33:26;2.50;32.10
3037;DHT22;1528;52.550;13.408;2023-03-12T03:36:13;2.40;32.70
3037;DHT22;1528;52.550;13.408;2023-03-12T03:38:58;2.30;32.70
3037;DHT22;1528;52.550;13.408;2023-03-12T03:41:44;2.50;32.50
3037;DHT22;1528;52.550;13.408;2023-03-12T03:44:30;2.40;32.50
3037;DHT22;1528;52.550;13.408;2023-03-12T03:47:15;2.20;33.10
3037;DHT22;1528;52.550;13.408;2023-03-12T03:50:03;2.00;33.50
3037;DHT22;1528;52.550;13.408;2023-03-12T03:52:48;2.10;33.70
3037;DHT22;1528;52.550;13.408;2023-03-12T03:55:35;2.20;33.10
3037;DHT22;1528;52.550;13.408;2023-03-12T03:58:21;2.40;33.00
3037;DHT22;1528;52.550;13.408;2023-03-12T04:01:07;2.40;32.90
3037;DHT22;1528;52.550;13.408;2023-03-12T04:03:52;2.30;33.10
3037;DHT22;1528;52.550;13.408;2023-03-12T04:06:39;2.30;33.80
3037;DHT22;1528;52.550;13.408;2023-03-12T04:09:25;2.30;33.30
3037;DHT22;1528;52.550;13.408;2023-03-12T04:12:10;2.20;33.40
3037;DHT22;1528;52.550;13.408;2023-03-12T04:14:56;2.20;33.70
3037;DHT22;1528;52.550;13.408;2023-03-12T04:17:41;2.10;34.20
3037;DHT22;1528;52.550;13.408;2023-03-12T04:20:27;2.00;34.30
3037;DHT22;1528;52.550;13.408;2023-03-12T04:23:14;2.00;34.50
3037;DHT22;1528;52.550;13.408;2023-03-12T04:26:00;2.10;34.20
3037;DHT22;1528;52.550;13.408;2023-03-12T04:28:45;2.10;34.30
3037;DHT22;1528;52.550;13.408;2023-03-12T04:31:31;2.20;34.30
3037;DHT22;1528;52.550;13.408;2023-03-12T04:34:16;2.10;34.30
3037;DHT22;1528;52.550;13.408;2023-03-12T04:37:02;2.10;34.50
3037;DHT22;1528;52.550;13.408;2023-03-12T04:39:49;2.10;34.90
3037;DHT22;1528;52.550;13.408;2023-03-12T04:42:35;2.00;35.40
3037;DHT22;1528;52.550;13.408;2023-03-12T04:45:20;1.90;36.50
3037;DHT22;1528;52.550;13.408;2023-03-12T04:48:06;1.80;36.00
3037;DHT22;1528;52.550;13.408;2023-03-12T04:50:51;1.80;36.30
3037;DHT22;1528;52.550;13.408;2023-03-12T04:53:37;1.90;36.50
3037;DHT22;1528;52.550;13.408;2023-03-12T04:56:24;2.10;36.20
3037;DHT22;1528;52.550;13.408;2023-03-12T04:59:11;2.10;36.20
3037;DHT22;1528;52.550;13.408;2023-03-12T05:01:57;2.00;36.60
3037;DHT22;1528;52.550;13.408;2023-03-12T05:04:43;2.20;36.00
3037;DHT22;1528;52.550;13.408;2023-03-12T05:07:28;2.00;36.80
3037;DHT22;1528;52.550;13.408;2023-03-12T05:10:14;2.20;36.40
3037;DHT22;1528;52.550;13.408;2023-03-12T05:13:01;2.00;37.30
3037;DHT22;1528;52.550;13.408;2023-03-12T05:15:48;2.10;36.80
3037;DHT22;1528;52.550;13.408;2023-03-12T05:18:34;2.00;37.00
3037;DHT22;1528;52.550;13.408;2023-03-12T05:21:20;2.20;36.40
3037;DHT22;1528;52.550;13.408;2023-03-12T05:24:06;2.10;36.60
3037;DHT22;1528;52.550;13.408;2023-03-12T05:26:52;2.00;36.60
3037;DHT22;1528;52.550;13.408;2023-03-12T05:29:39;2.20;36.60
3037;DHT22;1528;52.550;13.408;2023-03-12T05:32:25;2.20;36.50
3037;DHT22;1528;52.550;13.408;2023-03-12T05:35:10;2.00;36.60
3037;DHT22;1528;52.550;13.408;2023-03-12T05:37:56;2.00;36.50
3037;DHT22;1528;52.550;13.408;2023-03-12T05:40:42;2.00;36.90
3037;DHT22;1528;52.550;13.408;2023-03-12T05:43:27;1.90;37.20
3037;DHT22;1528;52.550;13.408;2023-03-12T05:46:15;2.10;36.30
3037;DHT22;1528;52.550;13.408;2023-03-12T05:49:00;2.00;36.50
3037;DHT22;1528;52.550;13.408;2023-03-12T05:51:46;2.10;36.80
3037;DHT22;1528;52.550;13.408;2023-03-12T05:54:32;2.30;35.50
3037;DHT22;1528;52.550;13.408;2023-03-12T05:57:18;2.00;36.10
3037;DHT22;1528;52.550;13.408;2023-03-12T06:00:05;1.90;36.70
3037;DHT22;1528;52.550;13.408;2023-03-12T06:02:52;2.10;36.10
3037;DHT22;1528;52.550;13.408;2023-03-12T06:05:37;2.20;35.90
3037;DHT22;1528;52.550;13.408;2023-03-12T06:08:23;2.20;35.80
3037;DHT22;1528;52.550;13.408;2023-03-12T06:11:09;2.20;36.10
3037;DHT22;1528;52.550;13.408;2023-03-12T06:13:55;2.30;36.00
3037;DHT22;1528;52.550;13.408;2023-03-12T06:16:41;2.20;36.10
3037;DHT22;1528;52.550;13.408;2023-03-12T06:19:28;2.00;36.60
3037;DHT22;1528;52.550;13.408;2023-03-12T06:22:13;2.10;36.70
3037;DHT22;1528;52.550;13.408;2023-03-12T06:24:59;2.30;36.00
3037;DHT22;1528;52.550;13.408;2023-03-12T06:27:45;2.10;36.30
3037;DHT22;1528;52.550;13.408;2023-03-12T06:30:30;2.10;36.40
3037;DHT22;1528;52.550;13.408;2023-03-12T06:33:16;2.10;36.60
3037;DHT22;1528;52.550;13.408;2023-03-12T06:36:05;2.20;36.30
3037;DHT22;1528;52.550;13.408;2023-03-12T06:38:50;2.20;36.20
3037;DHT22;1528;52.550;13.408;2023-03-12T06:41:36;2.30;36.20
3037;DHT22;1528;52.550;13.408;2023-03-12T06:44:22;2.30;36.30
3037;DHT22;1528;52.550;13.408;2023-03-12T06:47:07;2.30;36.60
3037;DHT22;1528;52.550;13.408;2023-03-12T06:49:53;2.30;36.10
3037;DHT22;1528;52.550;13.408;2023-03-12T06:52:40;2.30;35.90
3037;DHT22;1528;52.550;13.408;2023-03-12T06:55:26;2.30;36.30
3037;DHT22;1528;52.550;13.408;2023-03-12T06:58:11;2.30;36.70
3037;DHT22;1528;52.550;13.408;2023-03-12T07:00:57;2.40;36.90
3037;DHT22;1528;52.550;13.408;2023-03-12T07:03:43;2.50;36.60
3037;DHT22;1528;52.550;13.408;2023-03-12T07:06:29;2.60;36.90
3037;DHT22;1528;52.550;13.408;2023-03-12T07:09:16;2.50;36.00
3037;DHT22;1528;52.550;13.408;2023-03-12T07:12:02;2.70;36.30
3037;DHT22;1528;52.550;13.408;2023-03-12T07:14:48;2.80;35.70
3037;DHT22;1528;52.550;13.408;2023-03-12T07:17:34;2.90;35.70
3037;DHT22;1528;52.550;13.408;2023-03-12T07:20:19;3.20;35.00
3037;DHT22;1528;52.550;13.408;2023-03-12T07:23:05;3.10;35.00
3037;DHT22;1528;52.550;13.408;2023-03-12T07:25:52;3.30;34.50
3037;DHT22;1528;52.550;13.408;2023-03-12T07:28:38;3.40;34.30
3037;DHT22;1528;52.550;13.408;2023-03-12T07:31:24;3.40;34.30
3037;DHT22;1528;52.550;13.408;2023-03-12T07:34:09;3.50;33.70
3037;DHT22;1528;52.550;13.408;2023-03-12T07:36:55;3.50;33.70
3037;DHT22;1528;52.550;13.408;2023-03-12T07:39:41;3.40;33.50
3037;DHT22;1528;52.550;13.408;2023-03-12T07:42:28;3.50;33.80
3037;DHT22;1528;52.550;13.408;2023-03-12T07:45:13;3.40;34.00
3037;DHT22;1528;52.550;13.408;2023-03-12T07:47:59;3.50;34.00
3037;DHT22;1528;52.550;13.408;2023-03-12T07:50:45;3.60;33.60
3037;DHT22;1528;52.550;13.408;2023-03-12T07:53:31;3.70;33.50
3037;DHT22;1528;52.550;13.408;2023-03-12T07:56:16;3.60;33.00
3037;DHT22;1528;52.550;13.408;2023-03-12T07:59:03;3.70;33.20
3037;DHT22;1528;52.550;13.408;2023-03-12T08:01:49;3.70;32.80
3037;DHT22;1528;52.550;13.408;2023-03-12T08:04:35;3.80;32.70
3037;DHT22;1528;52.550;13.408;2023-03-12T08:07:20;3.90;32.70
3037;DHT22;1528;52.550;13.408;2023-03-12T08:10:07;3.70;32.60
3037;DHT22;1528;52.550;13.408;2023-03-12T08:12:53;4.00;32.80
3037;DHT22;1528;52.550;13.408;2023-03-12T08:15:40;4.10;32.30
3037;DHT22;1528;52.550;13.408;2023-03-12T08:18:26;4.20;31.80
3037;DHT22;1528;52.550;13.408;2023-03-12T08:21:12;4.20;32.20
3037;DHT22;1528;52.550;13.408;2023-03-12T08:23:59;4.20;31.40
3037;DHT22;1528;52.550;13.408;2023-03-12T08:26:45;4.30;31.40
3037;DHT22;1528;52.550;13.408;2023-03-12T08:29:31;4.40;31.00
3037;DHT22;1528;52.550;13.408;2023-03-12T08:32:18;4.40;31.20
3037;DHT22;1528;52.550;13.408;2023-03-12T08:35:04;4.20;31.40
3037;DHT22;1528;52.550;13.408;2023-03-12T08:37:49;4.30;30.40
3037;DHT22;1528;52.550;13.408;2023-03-12T08:40:35;4.70;29.80
3037;DHT22;1528;52.550;13.408;2023-03-12T08:43:21;4.80;29.10
3037;DHT22;1528;52.550;13.408;2023-03-12T08:46:06;4.90;29.10
3037;DHT22;1528;52.550;13.408;2023-03-12T08:48:53;5.10;28.50
3037;DHT22;1528;52.550;13.408;2023-03-12T08:51:39;4.80;29.00
3037;DHT22;1528;52.550;13.408;2023-03-12T08:54:25;5.20;28.20
3037;DHT22;1528;52.550;13.408;2023-03-12T08:57:10;5.30;27.80
3037;DHT22;1528;52.550;13.408;2023-03-12T08:59:56;5.20;28.20
3037;DHT22;1528;52.550;13.408;2023-03-12T09:02:42;5.30;28.00
3037;DHT22;1528;52.550;13.408;2023-03-12T09:05:31;5.30;28.30
3037;DHT22;1528;52.550;13.408;2023-03-12T09:08:17;5.60;28.10
3037;DHT22;1528;52.550;13.408;2023-03-12T09:11:02;5.60;27.20
3037;DHT22;1528;52.550;13.408;2023-03-12T09:13:48;5.60;26.80
3037;DHT22;1528;52.550;13.408;2023-03-12T09:16:34;5.60;26.60
3037;DHT22;1528;52.550;13.408;2023-03-12T09:19:19;5.60;26.70
3037;DHT22;1528;52.550;13.408;2023-03-12T09:22:06;5.60;27.10
3037;DHT22;1528;52.550;13.408;2023-03-12T09:24:52;5.60;27.40
3037;DHT22;1528;52.550;13.408;2023-03-12T09:27:38;5.70;26.80
3037;DHT22;1528;52.550;13.408;2023-03-12T09:30:24;5.70;26.80
3037;DHT22;1528;52.550;13.408;2023-03-12T09:33:10;6.10;26.50
3037;DHT22;1528;52.550;13.408;2023-03-12T09:35:56;6.10;26.30
3037;DHT22;1528;52.550;13.408;2023-03-12T09:38:43;6.40;25.50
3037;DHT22;1528;52.550;13.408;2023-03-12T09:41:31;6.60;25.60
3037;DHT22;1528;52.550;13.408;2023-03-12T09:44:25;6.70;23.90
3037;DHT22;1528;52.550;13.408;2023-03-12T09:47:21;6.70;23.90
3037;DHT22;1528;52.550;13.408;2023-03-12T09:50:18;6.70;24.00
3037;DHT22;1528;52.550;13.408;2023-03-12T09:53:10;6.90;23.40
3037;DHT22;1528;52.550;13.408;2023-03-12T09:56:03;6.80;23.50
3037;DHT22;1528;52.550;13.408;2023-03-12T09:58:52;6.90;23.60
3037;DHT22;1528;52.550;13.408;2023-03-12T10:01:42;7.00;23.40
3037;DHT22;1528;52.550;13.408;2023-03-12T10:04:39;7.20;23.50
3037;DHT22;1528;52.550;13.408;2023-03-12T10:07:30;7.70;22.60
3037;DHT22;1528;52.550;13.408;2023-03-12T10:10:27;7.90;23.20
3037;DHT22;1528;52.550;13.408;2023-03-12T10:13:27;8.10;22.70
3037;DHT22;1528;52.550;13.408;2023-03-12T10:16:36;8.20;23.10
3037;DHT22;1528;52.550;13.408;2023-03-12T10:19:41;8.60;22.20
3037;DHT22;1528;52.550;13.408;2023-03-12T10:22:37;9.00;21.60
3037;DHT22;1528;52.550;13.408;2023-03-12T10:25:31;9.20;20.60
3037;DHT22;1528;52.550;13.408;2023-03-12T10:28:29;9.50;19.10
3037;DHT22;1528;52.550;13.408;2023-03-12T10:31:18;9.50;19.30
3037;DHT22;1528;52.550;13.408;2023-03-12T10:34:13;9.40;19.10
3037;DHT22;1528;52.550;13.408;2023-03-12T10:37:05;8.90;20.40
3037;DHT22;1528;52.550;13.408;2023-03-12T10:39:57;9.10;19.90
3037;DHT22;1528;52.550;13.408;2023-03-12T10:42:44;9.60;19.40
3037;DHT22;1528;52.550;13.408;2023-03-12T10:45:35;9.30;18.20
3037;DHT22;1528;52.550;13.408;2023-03-12T10:48:24;9.40;18.90
3037;DHT22;1528;52.550;13.408;2023-03-12T10:51:11;9.80;18.40
3037;DHT22;1528;52.550;13.408;2023-03-12T10:53:57;10.10;17.70
3037;DHT22;1528;52.550;13.408;2023-03-12T10:56:48;10.30;16.60
3037;DHT22;1528;52.550;13.408;2023-03-12T10:59:35;10.30;16.30
3037;DHT22;1528;52.550;13.408;2023-03-12T11:02:40;10.20;16.80
3037;DHT22;1528;52.550;13.408;2023-03-12T11:05:29;10.40;15.60
3037;DHT22;1528;52.550;13.408;2023-03-12T11:08:20;10.30;14.40
3037;DHT22;1528;52.550;13.408;2023-03-12T11:11:08;10.30;15.50
3037;DHT22;1528;52.550;13.408;2023-03-12T11:14:05;10.50;15.40
3037;DHT22;1528;52.550;13.408;2023-03-12T11:16:53;10.50;14.80
3037;DHT22;1528;52.550;13.408;2023-03-12T11:19:41;10.70;14.80
3037;DHT22;1528;52.550;13.408;2023-03-12T11:22:29;11.00;11.80
3037;DHT22;1528;52.550;13.408;2023-03-12T11:25:22;11.00;12.00
3037;DHT22;1528;52.550;13.408;2023-03-12T11:28:16;10.90;11.40
3037;DHT22;1528;52.550;13.408;2023-03-12T11:31:07;10.50;11.70
3037;DHT22;1528;52.550;13.408;2023-03-12T11:33:59;10.50;12.40
3037;DHT22;1528;52.550;13.408;2023-03-12T11:36:54;10.40;12.80
3037;DHT22;1528;52.550;13.408;2023-03-12T11:39:55;10.80;13.10
3037;DHT22;1528;52.550;13.408;2023-03-12T11:42:55;10.90;13.40
3037;DHT22;1528;52.550;13.408;2023-03-12T11:45:52;11.10;13.30
3037;DHT22;1528;52.550;13.408;2023-03-12T11:48:52;11.20;14.70
3037;DHT22;1528;52.550;13.408;2023-03-12T11:51:46;11.60;11.20
3037;DHT22;1528;52.550;13.408;2023-03-12T11:55:08;11.40;10.70
3037;DHT22;1528;52.550;13.408;2023-03-12T11:58:04;11.70;9.80
3037;DHT22;1528;52.550;13.408;2023-03-12T12:00:59;11.80;10.40
3037;DHT22;1528;52.550;13.408;2023-03-12T12:04:03;11.80;10.60
3037;DHT22;1528;52.550;13.408;2023-03-12T12:07:06;12.20;8.20
3037;DHT22;1528;52.550;13.408;2023-03-12T12:09:56;11.80;9.10
3037;DHT22;1528;52.550;13.408;2023-03-12T12:12:52;11.70;9.30
3037;DHT22;1528;52.550;13.408;2023-03-12T12:15:46;12.00;9.10
3037;DHT22;1528;52.550;13.408;2023-03-12T12:18:47;11.90;9.20
3037;DHT22;1528;52.550;13.408;2023-03-12T12:21:44;11.70;9.80
3037;DHT22;1528;52.550;13.408;2023-03-12T12:24:44;11.80;8.70
3037;DHT22;1528;52.550;13.408;2023-03-12T12:27:37;12.00;8.30
3037;DHT22;1528;52.550;13.408;2023-03-12T12:30:39;11.90;9.10
3037;DHT22;1528;52.550;13.408;2023-03-12T12:33:33;12.00;7.70
3037;DHT22;1528;52.550;13.408;2023-03-12T12:36:23;12.00;9.00
3037;DHT22;1528;52.550;13.408;2023-03-12T12:39:12;12.30;7.80
3037;DHT22;1528;52.550;13.408;2023-03-12T12:42:04;12.60;7.00
3037;DHT22;1528;52.550;13.408;2023-03-12T12:44:52;12.30;5.10
3037;DHT22;1528;52.550;13.408;2023-03-12T12:47:43;12.10;6.90
3037;DHT22;1528;52.550;13.408;2023-03-12T12:50:34;12.00;4.20
3037;DHT22;1528;52.550;13.408;2023-03-12T12:53:23;12.10;2.00
3037;DHT22;1528;52.550;13.408;2023-03-12T12:56:14;11.70;1.00
3037;DHT22;1528;52.550;13.408;2023-03-12T12:59:13;11.70;3.30
3037;DHT22;1528;52.550;13.408;2023-03-12T13:02:14;11.80;1.60
3037;DHT22;1528;52.550;13.408;2023-03-12T13:05:02;12.00;1.90
3037;DHT22;1528;52.550;13.408;2023-03-12T13:07:48;12.20;2.00
3037;DHT22;1528;52.550;13.408;2023-03-12T13:10:40;12.30;1.00
3037;DHT22;1528;52.550;13.408;2023-03-12T13:13:26;12.00;1.90
3037;DHT22;1528;52.550;13.408;2023-03-12T13:16:17;11.60;1.90
3037;DHT22;1528;52.550;13.408;2023-03-12T13:19:07;11.40;2.60
3037;DHT22;1528;52.550;13.408;2023-03-12T13:22:14;11.10;3.40
3037;DHT22;1528;52.550;13.408;2023-03-12T13:25:16;11.00;4.00
3037;DHT22;1528;52.550;13.408;2023-03-12T13:28:28;10.80;4.50
3037;DHT22;1528;52.550;13.408;2023-03-12T13:31:36;11.10;4.90
3037;DHT22;1528;52.550;13.408;2023-03-12T13:38:00;11.20;4.40
3037;DHT22;1528;52.550;13.408;2023-03-12T13:40:56;11.20;4.30
3037;DHT22;1528;52.550;13.408;2023-03-12T13:43:50;11.00;4.80
3037;DHT22;1528;52.550;13.408;2023-03-12T13:46:40;10.80;5.20
3037;DHT22;1528;52.550;13.408;2023-03-12T13:49:33;10.70;5.80
3037;DHT22;1528;52.550;13.408;2023-03-12T13:52:21;10.70;5.90
3037;DHT22;1528;52.550;13.408;2023-03-12T13:55:19;10.80;6.00
3037;DHT22;1528;52.550;13.408;2023-03-12T13:58:08;10.80;6.30
3037;DHT22;1528;52.550;13.408;2023-03-12T14:01:02;10.60;5.90
3037;DHT22;1528;52.550;13.408;2023-03-12T14:03:49;10.50;6.30
3037;DHT22;1528;52.550;13.408;2023-03-12T14:06:52;10.60;6.80
3037;DHT22;1528;52.550;13.408;2023-03-12T14:09:48;10.40;6.10
3037;DHT22;1528;52.550;13.408;2023-03-12T14:12:48;10.00;4.60
3037;DHT22;1528;52.550;13.408;2023-03-12T14:15:41;10.30;4.70
3037;DHT22;1528;52.550;13.408;2023-03-12T14:18:30;10.30;5.50
3037;DHT22;1528;52.550;13.408;2023-03-12T14:21:20;10.40;4.60
3037;DHT22;1528;52.550;13.408;2023-03-12T14:24:16;10.20;4.60
3037;DHT22;1528;52.550;13.408;2023-03-12T14:27:05;10.20;5.10
3037;DHT22;1528;52.550;13.408;2023-03-12T14:29:56;9.90;5.70
3037;DHT22;1528;52.550;13.408;2023-03-12T14:32:43;9.90;6.50
3037;DHT22;1528;52.550;13.408;2023-03-12T14:35:33;9.80;5.50
3037;DHT22;1528;52.550;13.408;2023-03-12T14:38:25;9.50;6.00
3037;DHT22;1528;52.550;13.408;2023-03-12T14:41:15;9.60;5.40
3037;DHT22;1528;52.550;13.408;2023-03-12T14:44:06;9.30;6.30
3037;DHT22;1528;52.550;13.408;2023-03-12T14:47:00;9.20;6.90
3037;DHT22;1528;52.550;13.408;2023-03-12T14:49:46;9.20;7.50
3037;DHT22;1528;52.550;13.408;2023-03-12T14:52:32;9.10;8.80
3037;DHT22;1528;52.550;13.408;2023-03-12T14:55:19;9.10;8.70
3037;DHT22;1528;52.550;13.408;2023-03-12T14:58:14;9.20;9.50
3037;DHT22;1528;52.550;13.408;2023-03-12T15:01:02;8.90;10.90
3037;DHT22;1528;52.550;13.408;2023-03-12T15:03:51;8.90;10.70
3037;DHT22;1528;52.550;13.408;2023-03-12T15:06:43;8.80;9.80
3037;DHT22;1528;52.550;13.408;2023-03-12T15:09:30;8.80;10.50
3037;DHT22;1528;52.550;13.408;2023-03-12T15:12:18;8.70;11.80
3037;DHT22;1528;52.550;13.408;2023-03-12T15:15:07;8.80;10.30
3037;DHT22;1528;52.550;13.408;2023-03-12T15:17:54;8.70;10.80
3037;DHT22;1528;52.550;13.408;2023-03-12T15:20:41;8.80;10.70
3037;DHT22;1528;52.550;13.408;2023-03-12T15:23:29;8.80;10.80
3037;DHT22;1528;52.550;13.408;2023-03-12T15:26:27;8.90;10.00
3037;DHT22;1528;52.550;13.408;2023-03-12T15:29:19;8.80;11.20
3037;DHT22;1528;52.550;13.408;2023-03-12T15:32:13;8.80;10.40
3037;DHT22;1528;52.550;13.408;2023-03-12T15:35:11;8.60;11.20
3037;DHT22;1528;52.550;13.408;2023-03-12T15:37:58;8.50;11.30
3037;DHT22;1528;52.550;13.408;2023-03-12T15:40:48;8.60;11.60
3037;DHT22;1528;52.550;13.408;2023-03-12T15:43:34;8.50;12.10
3037;DHT22;1528;52.550;13.408;2023-03-12T15:46:22;8.20;12.60
3037;DHT22;1528;52.550;13.408;2023-03-12T15:49:20;8.20;13.20
3037;DHT22;1528;52.550;13.408;2023-03-12T15:52:26;8.00;14.30
3037;DHT22;1528;52.550;13.408;2023-03-12T15:55:26;7.90;15.00
3037;DHT22;1528;52.550;13.408;2023-03-12T15:58:34;8.00;15.60
3037;DHT22;1528;52.550;13.408;2023-03-12T16:01:20;7.90;15.30
3037;DHT22;1528;52.550;13.408;2023-03-12T16:04:11;7.80;16.20
3037;DHT22;1528;52.550;13.408;2023-03-12T16:06:57;7.60;16.00
3037;DHT22;1528;52.550;13.408;2023-03-12T16:09:44;7.80;16.70
3037;DHT22;1528;52.550;13.408;2023-03-12T16:12:32;8.10;18.00
3037;DHT22;1528;52.550;13.408;2023-03-12T16:15:21;7.70;19.80
3037;DHT22;1528;52.550;13.408;2023-03-12T16:18:12;7.70;20.30
3037;DHT22;1528;52.550;13.408;2023-03-12T16:20:58;7.60;19.60
3037;DHT22;1528;52.550;13.408;2023-03-12T16:23:44;7.60;20.40
3037;DHT22;1528;52.550;13.408;2023-03-12T16:26:31;7.60;20.70
3037;DHT22;1528;52.550;13.408;2023-03-12T16:29:19;7.60;20.80
3037;DHT22;1528;52.550;13.408;2023-03-12T16:32:11;7.40;20.90
3037;DHT22;1528;52.550;13.408;2023-03-12T16:34:56;7.30;20.80
3037;DHT22;1528;52.550;13.408;2023-03-12T16:37:42;7.50;20.20
3037;DHT22;1528;52.550;13.408;2023-03-12T16:40:30;7.50;20.20
3037;DHT22;1528;52.550;13.408;2023-03-12T16:43:18;7.30;20.50
3037;DHT22;1528;52.550;13.408;2023-03-12T16:46:07;7.30;20.90
3037;DHT22;1528;52.550;13.408;2023-03-12T16:48:54;7.20;21.90
3037;DHT22;1528;52.550;13.408;2023-03-12T16:51:39;7.20;22.10
3037;DHT22;1528;52.550;13.408;2023-03-12T16:54:25;7.10;24.20
3037;DHT22;1528;52.550;13.408;2023-03-12T16:57:17;7.00;26.50
3037;DHT22;1528;52.550;13.408;2023-03-12T17:00:06;6.90;27.60
3037;DHT22;1528;52.550;13.408;2023-03-12T17:02:54;6.80;28.40
3037;DHT22;1528;52.550;13.408;2023-03-12T17:05:40;6.70;29.60
3037;DHT22;1528;52.550;13.408;2023-03-12T17:08:26;6.60;29.20
3037;DHT22;1528;52.550;13.408;2023-03-12T17:11:20;6.70;29.80
3037;DHT22;1528;52.550;13.408;2023-03-12T17:14:15;6.70;28.90
3037;DHT22;1528;52.550;13.408;2023-03-12T17:17:01;6.70;29.10
3037;DHT22;1528;52.550;13.408;2023-03-12T17:19:48;6.70;29.50
3037;DHT22;1528;52.550;13.408;2023-03-12T17:22:35;6.60;29.40
3037;DHT22;1528;52.550;13.408;2023-03-12T17:25:23;6.60;29.00
3037;DHT22;1528;52.550;13.408;2023-03-12T17:28:12;6.50;29.80
3037;DHT22;1528;52.550;13.408;2023-03-12T17:30:58;6.70;30.10
3037;DHT22;1528;52.550;13.408;2023-03-12T17:33:43;6.60;30.20
3037;DHT22;1528;52.550;13.408;2023-03-12T17:36:30;6.80;30.00
3037;DHT22;1528;52.550;13.408;2023-03-12T17:39:19;6.80;29.50
3037;DHT22;1528;52.550;13.408;2023-03-12T17:42:05;6.90;30.20
3037;DHT22;1528;52.550;13.408;2023-03-12T17:44:50;6.60;29.90
3037;DHT22;1528;52.550;13.408;2023-03-12T17:47:36;6.70;30.90
3037;DHT22;1528;52.550;13.408;2023-03-12T17:50:22;6.70;30.80
3037;DHT22;1528;52.550;13.408;2023-03-12T17:53:09;6.80;30.40
3037;DHT22;1528;52.550;13.408;2023-03-12T17:55:54;6.80;30.80
3037;DHT22;1528;52.550;13.408;2023-03-12T17:58:40;6.70;31.50
3037;DHT22;1528;52.550;13.408;2023-03-12T18:01:26;6.80;32.00
3037;DHT22;1528;52.550;13.408;2023-03-12T18:04:11;6.70;32.20
3037;DHT22;1528;52.550;13.408;2023-03-12T18:06:58;6.70;33.90
3037;DHT22;1528;52.550;13.408;2023-03-12T18:09:45;6.60;34.10
3037;DHT22;1528;52.550;13.408;2023-03-12T18:12:31;6.60;34.60
3037;DHT22;1528;52.550;13.408;2023-03-12T18:15:16;6.70;34.30
3037;DHT22;1528;52.550;13.408;2023-03-12T18:18:02;6.80;34.80
3037;DHT22;1528;52.550;13.408;2023-03-12T18:20:48;6.80;35.50
3037;DHT22;1528;52.550;13.408;2023-03-12T18:23:34;6.70;35.90
3037;DHT22;1528;52.550;13.408;2023-03-12T18:26:21;6.60;37.40